Time;durP1;ratioP1;P1;durP2;ratioP2;P2;SDS_P1;SDS_P2;PMS_P1;PMS_P2;Temp;Humidity;BMP_temperature;BMP_pressure;BME280_temperature;BME280_humidity;BME280_pressure;Samples;Min_cycle;Max_cycle;Signal;HPM_P1;HPM_P2
2022/12/10 00:01:12;;;;;;;32.63;18.97;;;2.80;99.90;;;;;;4968451;28;20472;-63
2022/12/10 00:03:38;;;;;;;27.60;18.83;;;3.00;99.90;;;;;;4970480;28;20539;-63
2022/12/10 00:06:06;;;;;;;29.67;19.90;;;3.00;53.40;;;;;;4970439;28;20934;-63
2022/12/10 00:08:33;;;;;;;28.77;19.40;;;2.70;48.70;;;;;;4970974;28;20161;-62
2022/12/10 00:10:59;;;;;;;27.37;19.30;;;2.90;99.90;;;;;;4969630;28;20488;-63
2022/12/10 00:13:25;;;;;;;33.87;19.93;;;3.00;1.00;;;;;;4970481;28;20487;-63
2022/12/10 00:15:51;;;;;;;30.00;18.03;;;2.70;99.90;;;;;;4970235;28;20401;-64
2022/12/10 00:18:16;;;;;;;32.40;19.07;;;2.70;99.90;;;;;;4970661;28;20181;-63
2022/12/10 00:20:42;;;;;;;30.53;20.47;;;2.80;99.90;;;;;;4969756;28;20678;-63
2022/12/10 00:23:08;;;;;;;29.47;18.17;;;3.00;99.90;;;;;;4970851;28;20269;-63
2022/12/10 00:25:33;;;;;;;30.47;19.77;;;3.00;1.00;;;;;;4970138;28;20170;-63
2022/12/10 00:27:59;;;;;;;32.40;19.80;;;2.70;99.90;;;;;;4970518;28;20165;-63
2022/12/10 00:30:25;;;;;;;28.60;18.90;;;2.70;99.90;;;;;;4970176;28;20184;-63
2022/12/10 00:32:51;;;;;;;30.77;17.77;;;2.80;99.90;;;;;;4970266;28;20232;-63
2022/12/10 00:35:16;;;;;;;28.60;18.87;;;2.80;99.90;;;;;;4970285;28;20476;-63
2022/12/10 00:37:42;;;;;;;28.43;18.47;;;2.80;99.90;;;;;;4969422;28;20577;-63
2022/12/10 00:40:08;;;;;;;39.23;21.10;;;2.80;99.90;;;;;;4963662;28;20205;-63
2022/12/10 00:42:34;;;;;;;33.40;21.10;;;2.80;1.00;;;;;;4969015;28;20202;-64
2022/12/10 00:45:00;;;;;;;31.50;18.00;;;2.70;99.90;;;;;;4967277;28;20404;-64
2022/12/10 00:47:25;;;;;;;34.83;19.07;;;2.40;1.00;;;;;;4972060;28;20185;-64
2022/12/10 00:49:51;;;;;;;35.03;21.30;;;2.70;1.00;;;;;;4971804;28;20217;-64
2022/12/10 00:52:16;;;;;;;31.70;20.33;;;3.00;99.90;;;;;;4971305;28;20225;-63
2022/12/10 00:54:42;;;;;;;36.70;21.70;;;2.70;99.90;;;;;;4970218;28;20182;-63
2022/12/10 00:57:08;;;;;;;29.10;19.57;;;2.90;99.90;;;;;;4970233;28;20217;-63
2022/12/10 00:59:33;;;;;;;32.80;19.53;;;2.90;99.90;;;;;;4972958;28;20549;-64
2022/12/10 01:01:59;;;;;;;32.23;18.40;;;2.90;99.90;;;;;;4973067;28;20588;-63
2022/12/10 01:04:25;;;;;;;30.47;18.27;;;2.70;99.90;;;;;;4973641;28;20170;-64
2022/12/10 01:06:53;;;;;;;29.93;19.90;;;2.80;99.90;;;;;;4972968;28;20316;-63
2022/12/10 01:09:25;;;;;;;28.80;18.70;;;2.70;99.90;;;;;;4973278;28;20576;-63
2022/12/10 01:11:52;;;;;;;29.97;18.23;;;2.70;99.90;;;;;;4972267;28;20772;-63
2022/12/10 01:14:27;;;;;;;28.73;18.23;;;2.80;99.90;;;;;;4972977;28;20809;-63
2022/12/10 01:17:04;;;;;;;25.37;16.83;;;2.80;1.00;;;;;;4972818;28;20419;-63
2022/12/10 01:19:31;;;;;;;28.50;18.70;;;2.80;99.90;;;;;;4973211;28;20456;-63
2022/12/10 01:21:57;;;;;;;31.27;18.40;;;2.70;1.00;;;;;;4972357;28;20406;-63
2022/12/10 01:24:25;;;;;;;29.13;19.70;;;2.60;1.00;;;;;;4972967;28;20401;-64
2022/12/10 01:26:51;;;;;;;26.63;17.20;;;2.40;1.00;;;;;;4972486;28;20439;-64
2022/12/10 01:29:17;;;;;;;29.00;19.47;;;2.40;1.00;;;;;;4972858;28;20409;-63
2022/12/10 01:31:43;;;;;;;26.50;17.73;;;2.20;1.00;;;;;;4972361;28;20178;-64
2022/12/10 01:34:11;;;;;;;27.70;18.30;;;2.20;1.00;;;;;;4955980;28;20444;-63
2022/12/10 01:36:40;;;;;;;27.47;17.23;;;2.60;1.00;;;;;;4953547;28;20209;-63
2022/12/10 01:39:09;;;;;;;33.13;17.53;;;2.80;99.90;;;;;;4953671;28;20462;-63
2022/12/10 01:41:38;;;;;;;27.97;17.73;;;2.70;99.90;;;;;;4951820;28;20402;-63
2022/12/10 01:44:10;;;;;;;31.93;17.80;;;2.80;99.90;;;;;;4953250;28;20456;-63
2022/12/10 01:46:41;;;;;;;27.50;17.63;;;3.00;99.90;;;;;;4953008;29;20406;-63
2022/12/10 01:49:13;;;;;;;24.43;16.77;;;2.90;1.00;;;;;;4953487;28;20410;-62
2022/12/10 01:51:40;;;;;;;26.83;17.53;;;2.60;99.90;;;;;;4965661;28;20952;-63
2022/12/10 01:54:11;;;;;;;27.23;17.00;;;2.30;1.00;;;;;;4972076;28;20457;-63
2022/12/10 01:56:42;;;;;;;26.77;17.23;;;2.30;1.00;;;;;;4971678;28;20504;-64
2022/12/10 01:59:09;;;;;;;26.30;18.00;;;2.60;1.00;;;;;;4971873;28;20538;-63
2022/12/10 02:01:49;;;;;;;37.20;17.23;;;2.80;99.90;;;;;;4971544;28;20413;-63
2022/12/10 02:04:33;;;;;;;24.20;17.43;;;3.00;99.90;;;;;;4972240;28;20417;-63
2022/12/10 02:07:14;;;;;;;24.00;16.60;;;3.00;1.00;;;;;;4971871;28;20424;-64
2022/12/10 02:10:01;;;;;;;21.93;18.53;;;2.80;99.90;;;;;;4972116;28;20402;-63
2022/12/10 02:12:52;;;;;;;25.30;17.20;;;2.40;1.00;;;;;;4970809;28;20433;-64
2022/12/10 02:15:30;;;;;;;22.50;14.90;;;2.80;99.90;;;;;;4962944;28;20806;-63
2022/12/10 02:18:04;;;;;;;26.13;16.87;;;2.90;99.90;;;;;;4971847;28;20397;-63
2022/12/10 02:20:39;;;;;;;32.17;17.33;;;3.00;1.00;;;;;;4971251;28;20483;-63
2022/12/10 02:23:16;;;;;;;22.60;17.27;;;3.10;1.00;;;;;;4971923;28;20425;-63
2022/12/10 02:25:56;;;;;;;25.67;15.70;;;3.10;1.00;;;;;;4971242;28;20405;-63
2022/12/10 02:28:36;;;;;;;23.43;16.50;;;3.20;1.00;;;;;;4971909;28;20480;-62
2022/12/10 02:31:04;;;;;;;24.23;15.63;;;3.10;99.90;;;;;;4970988;28;20460;-62
2022/12/10 02:33:33;;;;;;;25.73;16.20;;;2.90;99.90;;;;;;4971470;28;20473;-65
2022/12/10 02:36:00;;;;;;;24.20;16.40;;;3.10;1.00;;;;;;4971542;28;20421;-65
2022/12/10 02:38:36;;;;;;;26.67;16.17;;;3.10;1.00;;;;;;4971299;28;20425;-62
2022/12/10 02:41:06;;;;;;;26.90;17.30;;;3.10;1.00;;;;;;4967079;28;20441;-62
2022/12/10 02:43:33;;;;;;;31.00;15.63;;;3.00;1.00;;;;;;4963755;28;20807;-62
2022/12/10 02:46:02;;;;;;;27.20;16.93;;;3.10;1.00;;;;;;4968213;28;20834;-63
2022/12/10 02:48:28;;;;;;;25.30;17.70;;;3.20;99.90;;;;;;4967769;28;20595;-65
2022/12/10 02:50:54;;;;;;;24.33;16.37;;;3.20;99.90;;;;;;4968223;28;20879;-63
2022/12/10 02:53:20;;;;;;;23.97;17.10;;;3.30;99.90;;;;;;4970103;28;20644;-62
2022/12/10 02:56:00;;;;;;;24.27;17.17;;;3.10;1.00;;;;;;4968448;28;20216;-62
2022/12/10 02:58:35;;;;;;;27.77;17.43;;;3.10;99.90;;;;;;4964617;28;20544;-62
2022/12/10 03:01:27;;;;;;;30.27;17.70;;;3.00;99.90;;;;;;4966133;28;20440;-62
2022/12/10 03:03:59;;;;;;;25.73;17.23;;;2.80;1.00;;;;;;4970248;28;20928;-62
2022/12/10 03:06:38;;;;;;;25.83;17.97;;;2.40;99.90;;;;;;4961631;28;20436;-62
2022/12/10 03:09:21;;;;;;;23.77;17.43;;;2.40;1.00;;;;;;4966647;28;20428;-61
2022/12/10 03:11:55;;;;;;;28.30;17.90;;;2.30;1.00;;;;;;4969991;28;20448;-64
2022/12/10 03:14:27;;;;;;;23.40;16.03;;;2.00;1.00;;;;;;4971161;28;20967;-64
2022/12/10 03:16:58;;;;;;;25.60;17.60;;;2.10;1.00;;;;;;4970852;28;20412;-64
2022/12/10 03:19:37;;;;;;;24.00;16.93;;;2.40;1.00;;;;;;4970704;28;21067;-64
2022/12/10 03:22:06;;;;;;;30.17;17.80;;;2.60;99.90;;;;;;4970202;28;20531;-62
2022/12/10 03:24:34;;;;;;;26.37;18.67;;;2.80;99.90;;;;;;4970840;28;20406;-62
2022/12/10 03:27:01;;;;;;;22.83;17.37;;;2.80;1.00;;;;;;4970532;28;20903;-62
2022/12/10 03:29:33;;;;;;;24.27;17.17;;;2.70;42.80;;;;;;4970915;28;20726;-62
2022/12/10 03:32:00;;;;;;;30.00;17.83;;;2.90;99.90;;;;;;4970157;28;20500;-62
2022/12/10 03:34:26;;;;;;;22.43;16.00;;;2.80;99.90;;;;;;4951627;28;20953;-62
2022/12/10 03:36:52;;;;;;;23.53;16.40;;;2.90;1.00;;;;;;4951357;28;20410;-62
2022/12/10 03:39:18;;;;;;;24.90;18.20;;;2.90;15.20;;;;;;4951482;28;20457;-62
2022/12/10 03:41:44;;;;;;;23.30;16.83;;;2.80;99.90;;;;;;4967319;28;20432;-62
2022/12/10 03:44:09;;;;;;;26.43;16.53;;;2.90;89.80;;;;;;4966815;28;20444;-62
2022/12/10 03:46:35;;;;;;;23.83;16.27;;;3.00;1.00;;;;;;4968248;28;20197;-62
2022/12/10 03:49:05;;;;;;;27.20;17.23;;;2.90;1.00;;;;;;4969360;28;20634;-64
2022/12/10 03:51:31;;;;;;;22.97;16.07;;;2.90;97.80;;;;;;4967772;28;20181;-62
2022/12/10 03:53:56;;;;;;;28.87;17.17;;;3.00;1.00;;;;;;4967600;28;20559;-62
2022/12/10 03:56:22;;;;;;;23.87;17.00;;;3.00;1.00;;;;;;4964579;28;20209;-64
2022/12/10 03:58:48;;;;;;;20.80;17.13;;;3.10;1.00;;;;;;4967624;28;20209;-62
2022/12/10 04:01:14;;;;;;;23.40;16.57;;;3.00;1.00;;;;;;4967796;28;20857;-62
2022/12/10 04:03:41;;;;;;;23.33;17.03;;;2.90;1.00;;;;;;4968831;28;20826;-62
2022/12/10 04:06:18;;;;;;;24.60;15.30;;;2.50;99.90;;;;;;4966186;28;20428;-62
2022/12/10 04:08:45;;;;;;;22.57;14.20;;;2.40;99.90;;;;;;4963643;28;20556;-62
2022/12/10 04:11:12;;;;;;;22.43;15.30;;;2.40;1.00;;;;;;4961778;28;20880;-62
2022/12/10 04:16:26;;;;;;;21.47;15.87;;;2.00;1.00;;;;;;4960464;28;21005;-62
2022/12/10 04:18:52;;;;;;;25.77;17.50;;;2.10;1.00;;;;;;4968988;28;20468;-62
2022/12/10 04:26:52;;;;;;;23.67;16.97;;;1.80;1.00;;;;;;4972892;28;20482;-62
2022/12/10 04:29:24;;;;;;;26.67;17.50;;;1.90;1.00;;;;;;4964429;28;21938;-62
2022/12/10 04:31:50;;;;;;;24.73;15.60;;;2.30;1.00;;;;;;4972079;28;20433;-62
2022/12/10 04:34:16;;;;;;;25.17;18.67;;;2.20;1.00;;;;;;4972242;28;20448;-62
2022/12/10 04:36:42;;;;;;;27.13;15.70;;;2.20;1.00;;;;;;4965441;28;20438;-62
2022/12/10 04:39:07;;;;;;;25.43;15.57;;;1.90;1.00;;;;;;4971737;28;20213;-61
2022/12/10 04:41:33;;;;;;;28.27;16.93;;;1.60;1.00;;;;;;4971736;28;20189;-62
2022/12/10 04:43:59;;;;;;;24.00;15.47;;;1.40;1.00;;;;;;4969405;28;20205;-62
2022/12/10 04:46:24;;;;;;;28.37;17.67;;;1.60;1.00;;;;;;4967470;28;20571;-61
2022/12/10 04:48:50;;;;;;;21.50;15.47;;;1.80;1.00;;;;;;4970002;28;20182;-62
2022/12/10 04:51:16;;;;;;;27.37;15.20;;;2.30;1.00;;;;;;4971537;28;20216;-62
2022/12/10 04:53:42;;;;;;;21.93;16.10;;;2.20;1.00;;;;;;4971507;28;20230;-62
2022/12/10 04:56:08;;;;;;;24.97;15.80;;;2.30;1.00;;;;;;4969027;28;20495;-62
2022/12/10 04:58:34;;;;;;;25.67;16.90;;;2.60;1.00;;;;;;4969150;28;20184;-62
2022/12/10 05:01:04;;;;;;;24.77;15.57;;;2.60;99.90;;;;;;4964811;28;20276;-62
2022/12/10 05:03:30;;;;;;;22.17;16.20;;;2.80;99.90;;;;;;4968819;28;20225;-63
2022/12/10 05:05:59;;;;;;;24.30;16.47;;;2.90;1.00;;;;;;4970735;28;20499;-63
2022/12/10 05:08:25;;;;;;;23.60;17.00;;;2.90;1.00;;;;;;4969149;28;20182;-63
2022/12/10 05:10:51;;;;;;;26.50;17.47;;;2.60;51.20;;;;;;4968410;28;20917;-63
2022/12/10 05:13:16;;;;;;;25.43;16.87;;;2.80;34.00;;;;;;4973076;28;20288;-65
2022/12/10 05:15:42;;;;;;;21.77;16.10;;;2.90;1.00;;;;;;4973192;28;20185;-65
2022/12/10 05:18:08;;;;;;;24.60;16.60;;;2.90;1.00;;;;;;4973329;28;20232;-63
2022/12/10 05:20:33;;;;;;;30.63;16.03;;;3.00;1.00;;;;;;4972765;28;20275;-63
2022/12/10 05:25:52;;;;;;;23.90;16.77;;;2.80;99.90;;;;;;4972483;28;20588;-66
2022/12/10 05:28:20;;;;;;;24.43;16.57;;;2.80;99.90;;;;;;4973261;28;20444;-62
2022/12/10 05:30:46;;;;;;;24.63;16.10;;;2.80;1.00;;;;;;4971907;28;20421;-62
2022/12/10 05:33:12;;;;;;;22.27;16.37;;;2.70;1.00;;;;;;4971898;28;20848;-62
2022/12/10 05:35:38;;;;;;;24.47;16.70;;;2.80;1.00;;;;;;4972374;28;20261;-62
2022/12/10 05:38:05;;;;;;;21.73;15.83;;;2.90;1.00;;;;;;4972477;28;20664;-62
2022/12/10 05:40:35;;;;;;;21.87;15.63;;;2.90;1.00;;;;;;4972225;28;20205;-63
2022/12/10 05:43:00;;;;;;;22.77;17.97;;;2.80;99.90;;;;;;4972545;28;20457;-63
2022/12/10 05:45:26;;;;;;;22.07;17.30;;;2.90;99.90;;;;;;4972486;28;20488;-64
2022/12/10 05:47:52;;;;;;;22.30;16.40;;;3.00;1.00;;;;;;4972913;28;20267;-65
2022/12/10 05:50:17;;;;;;;24.17;16.77;;;2.80;99.90;;;;;;4972201;28;20190;-63
2022/12/10 05:52:43;;;;;;;24.83;17.40;;;2.90;1.00;;;;;;4972045;28;20217;-63
2022/12/10 05:55:09;;;;;;;27.50;16.23;;;2.80;1.00;;;;;;4970151;28;20260;-65
2022/12/10 05:57:36;;;;;;;22.73;16.17;;;2.80;1.00;;;;;;4970125;28;20551;-64
2022/12/10 06:00:04;;;;;;;24.63;15.13;;;2.30;1.00;;;;;;4971579;28;20209;-63
2022/12/10 06:02:32;;;;;;;23.70;15.50;;;2.50;1.00;;;;;;4971632;28;20534;-63
2022/12/10 06:04:58;;;;;;;22.73;17.20;;;2.70;99.90;;;;;;4971947;28;20752;-63
2022/12/10 06:07:24;;;;;;;20.97;15.93;;;2.60;1.00;;;;;;4972463;28;20538;-65
2022/12/10 06:09:50;;;;;;;21.90;15.27;;;2.30;1.00;;;;;;4967205;28;20535;-65
2022/12/10 06:12:16;;;;;;;23.03;15.67;;;2.50;1.00;;;;;;4970683;28;20462;-65
2022/12/10 06:14:42;;;;;;;23.80;15.67;;;2.20;99.90;;;;;;4965966;28;20181;-65
2022/12/10 06:17:07;;;;;;;31.33;16.30;;;2.60;1.00;;;;;;4972142;28;20433;-64
2022/12/10 06:19:33;;;;;;;29.33;16.50;;;2.80;99.90;;;;;;4970928;28;20205;-64
2022/12/10 06:21:59;;;;;;;21.10;16.00;;;2.90;1.00;;;;;;4969809;28;20277;-65
2022/12/10 06:24:24;;;;;;;30.80;17.87;;;2.90;1.00;;;;;;4970664;28;20192;-65
2022/12/10 06:26:50;;;;;;;27.60;17.37;;;2.90;99.90;;;;;;4969020;28;20302;-64
2022/12/10 06:29:17;;;;;;;24.00;15.93;;;2.70;1.00;;;;;;4967814;28;20659;-64
2022/12/10 06:31:43;;;;;;;20.67;16.27;;;2.60;1.00;;;;;;4968989;28;20444;-64
2022/12/10 06:34:09;;;;;;;22.73;16.30;;;2.70;1.00;;;;;;4970071;28;20461;-63
2022/12/10 06:36:35;;;;;;;25.80;15.40;;;2.70;99.90;;;;;;4970517;28;20934;-64
2022/12/10 06:39:01;;;;;;;20.33;15.33;;;2.40;99.90;;;;;;4968235;28;20823;-63
2022/12/10 06:41:27;;;;;;;23.50;15.53;;;2.50;1.00;;;;;;4967364;28;20185;-63
2022/12/10 06:43:52;;;;;;;33.80;16.90;;;2.60;1.00;;;;;;4968155;28;20459;-64
2022/12/10 06:46:20;;;;;;;20.80;14.90;;;2.70;99.90;;;;;;4964989;28;20893;-63
2022/12/10 06:48:46;;;;;;;24.90;15.30;;;2.60;1.00;;;;;;4969776;28;20190;-63
2022/12/10 06:51:13;;;;;;;21.67;14.80;;;2.60;99.90;;;;;;4968157;28;20432;-63
2022/12/10 06:53:40;;;;;;;27.10;16.60;;;2.70;99.90;;;;;;4965700;28;20487;-64
2022/12/10 06:56:07;;;;;;;22.87;15.77;;;2.90;1.00;;;;;;4970023;28;20464;-64
2022/12/10 06:58:34;;;;;;;24.77;15.60;;;2.70;1.00;;;;;;4962900;28;20495;-64
2022/12/10 07:01:04;;;;;;;27.10;16.60;;;2.80;1.00;;;;;;4961447;28;20500;-64
2022/12/10 07:03:29;;;;;;;24.63;16.90;;;2.80;99.90;;;;;;4967752;28;20445;-64
2022/12/10 07:05:58;;;;;;;34.13;20.03;;;2.70;99.90;;;;;;4969011;28;20429;-64
2022/12/10 07:08:23;;;;;;;29.87;15.77;;;2.90;1.00;;;;;;4965629;28;20701;-63
2022/12/10 07:10:49;;;;;;;22.23;15.47;;;3.00;99.90;;;;;;4966294;28;20476;-63
2022/12/10 07:13:15;;;;;;;202.60;31.77;;;3.00;1.00;;;;;;4966539;28;20216;-64
2022/12/10 07:15:40;;;;;;;29.97;16.23;;;3.10;1.00;;;;;;4970196;28;20186;-64
2022/12/10 07:18:06;;;;;;;58.23;18.20;;;2.70;1.00;;;;;;4966799;28;20186;-64
2022/12/10 07:20:31;;;;;;;25.83;16.30;;;2.90;99.90;;;;;;4962056;28;20213;-64
2022/12/10 07:22:57;;;;;;;26.90;15.73;;;3.10;1.00;;;;;;4968225;28;20212;-64
2022/12/10 07:25:23;;;;;;;23.80;16.77;;;3.10;99.90;;;;;;4967911;28;20189;-64
2022/12/10 07:27:48;;;;;;;28.80;16.87;;;3.20;1.00;;;;;;4966899;28;20182;-64
2022/12/10 07:30:14;;;;;;;25.33;17.00;;;3.20;1.00;;;;;;4968116;28;20216;-64
2022/12/10 07:32:40;;;;;;;22.83;16.17;;;3.10;1.00;;;;;;4965138;28;20209;-65
2022/12/10 07:35:06;;;;;;;22.83;15.70;;;3.00;99.90;;;;;;4968183;28;20189;-63
2022/12/10 07:37:32;;;;;;;25.37;16.07;;;3.10;99.90;;;;;;4968317;28;20186;-62
2022/12/10 07:39:58;;;;;;;23.17;15.83;;;3.00;99.90;;;;;;4968501;28;20469;-63
2022/12/10 07:42:24;;;;;;;20.93;15.13;;;3.10;99.90;;;;;;4965161;28;20461;-64
2022/12/10 07:44:49;;;;;;;22.83;16.77;;;3.00;1.00;;;;;;4969831;28;20331;-64
2022/12/10 07:47:16;;;;;;;27.93;16.80;;;3.00;99.90;;;;;;4964728;28;20649;-62
2022/12/10 07:49:41;;;;;;;26.53;17.43;;;2.60;99.90;;;;;;4969341;28;20181;-64
2022/12/10 07:52:08;;;;;;;24.60;16.57;;;2.80;1.00;;;;;;4967538;28;20428;-64
2022/12/10 07:54:34;;;;;;;20.87;15.27;;;3.00;1.00;;;;;;4968768;28;20217;-64
2022/12/10 07:57:00;;;;;;;21.90;16.27;;;3.10;99.90;;;;;;4971901;28;20472;-64
2022/12/10 07:59:26;;;;;;;26.73;18.37;;;3.20;1.00;;;;;;4972876;28;20939;-64
2022/12/10 08:01:52;;;;;;;22.43;16.20;;;3.20;1.00;;;;;;4965563;28;20188;-64
2022/12/10 08:04:18;;;;;;;21.70;16.23;;;2.90;99.90;;;;;;4967150;28;20173;-64
2022/12/10 08:06:44;;;;;;;25.00;16.00;;;2.70;99.90;;;;;;4972742;28;20428;-63
2022/12/10 08:09:10;;;;;;;28.37;18.60;;;3.00;1.00;;;;;;4972057;28;20268;-64
2022/12/10 08:11:36;;;;;;;24.27;17.67;;;3.20;99.90;;;;;;4971016;28;20704;-64
2022/12/10 08:14:02;;;;;;;28.20;18.87;;;3.10;99.90;;;;;;4972854;28;20469;-64
2022/12/10 08:16:29;;;;;;;28.07;17.13;;;3.10;1.00;;;;;;4972881;28;20328;-63
2022/12/10 08:18:56;;;;;;;22.73;17.17;;;3.30;1.00;;;;;;4972133;28;20702;-64
2022/12/10 08:21:25;;;;;;;28.00;18.17;;;3.30;1.00;;;;;;4971738;28;20913;-65
2022/12/10 08:23:51;;;;;;;23.43;14.80;;;3.40;1.00;;;;;;4967688;28;21097;-64
2022/12/10 08:26:19;;;;;;;42.10;18.10;;;3.30;99.90;;;;;;4972326;28;20436;-63
2022/12/10 08:28:46;;;;;;;22.20;15.43;;;3.40;99.90;;;;;;4973357;28;20181;-63
2022/12/10 08:31:13;;;;;;;24.23;15.53;;;3.20;99.90;;;;;;4968562;28;20542;-63
2022/12/10 08:33:40;;;;;;;26.30;17.90;;;3.30;99.90;;;;;;4972409;28;20460;-63
2022/12/10 08:36:07;;;;;;;26.60;17.70;;;3.30;99.90;;;;;;4970573;28;20429;-61
2022/12/10 08:38:33;;;;;;;25.10;18.07;;;3.20;99.90;;;;;;4969117;28;20444;-63
2022/12/10 08:41:04;;;;;;;59.67;21.20;;;3.40;99.90;;;;;;4971445;28;21122;-61
2022/12/10 08:43:30;;;;;;;37.87;17.00;;;3.40;99.90;;;;;;4968983;28;20450;-63
2022/12/10 08:45:58;;;;;;;28.17;16.53;;;3.50;1.00;;;;;;4972328;28;20664;-64
2022/12/10 08:48:24;;;;;;;31.73;15.43;;;3.60;1.00;;;;;;4966560;28;20224;-64
2022/12/10 08:50:49;;;;;;;31.20;16.00;;;3.70;1.00;;;;;;4964538;28;20472;-64
2022/12/10 08:53:15;;;;;;;31.60;15.90;;;3.60;1.00;;;;;;4972853;28;20209;-64
2022/12/10 08:55:41;;;;;;;30.87;16.00;;;3.60;99.90;;;;;;4969240;28;20277;-63
2022/12/10 08:58:08;;;;;;;45.40;19.57;;;3.70;1.00;;;;;;4969280;28;20181;-63
2022/12/10 09:00:34;;;;;;;34.13;17.00;;;3.80;99.90;;;;;;4968648;28;20591;-64
2022/12/10 09:03:00;;;;;;;21.77;15.80;;;3.80;99.90;;;;;;4973645;28;20465;-64
2022/12/10 09:05:25;;;;;;;22.70;14.93;;;3.80;99.90;;;;;;4971369;28;20233;-64
2022/12/10 09:07:51;;;;;;;20.00;15.30;;;3.90;99.90;;;;;;4969048;28;20185;-64
2022/12/10 09:10:17;;;;;;;21.93;15.40;;;3.90;1.00;;;;;;4967454;28;20178;-63
2022/12/10 09:12:42;;;;;;;53.37;20.70;;;3.90;1.00;;;;;;4963061;28;20202;-64
2022/12/10 09:15:09;;;;;;;38.03;16.10;;;3.90;1.00;;;;;;4965611;28;20201;-63
2022/12/10 09:17:36;;;;;;;45.33;15.90;;;3.70;1.00;;;;;;4968768;28;20219;-64
2022/12/10 09:20:04;;;;;;;21.43;14.80;;;3.60;1.00;;;;;;4972190;28;20479;-64
2022/12/10 09:22:30;;;;;;;24.27;15.13;;;3.80;1.00;;;;;;4970694;28;20571;-63
2022/12/10 09:24:56;;;;;;;22.07;14.17;;;3.80;1.00;;;;;;4970649;28;20565;-64
2022/12/10 09:27:22;;;;;;;26.90;15.30;;;3.80;1.00;;;;;;4968503;28;21231;-64
2022/12/10 09:29:47;;;;;;;40.60;15.07;;;3.80;1.00;;;;;;4969100;28;20229;-64
2022/12/10 09:32:13;;;;;;;22.63;14.13;;;3.80;1.00;;;;;;4968742;28;20212;-65
2022/12/10 09:34:39;;;;;;;19.40;13.40;;;3.90;1.00;;;;;;4970215;28;20264;-64
2022/12/10 09:37:04;;;;;;;20.50;14.97;;;3.90;1.00;;;;;;4968112;28;20178;-64
2022/12/10 09:39:30;;;;;;;20.47;15.27;;;3.80;1.00;;;;;;4968505;28;20692;-64
2022/12/10 09:42:17;;;;;;;18.80;13.03;;;3.90;1.00;;;;;;4967570;28;20213;-64
2022/12/10 09:44:51;;;;;;;20.83;14.30;;;3.80;1.00;;;;;;4967527;28;20177;-64
2022/12/10 09:47:17;;;;;;;26.50;14.97;;;4.00;1.00;;;;;;4971905;28;20545;-64
2022/12/10 09:50:07;;;;;;;19.47;12.97;;;4.00;99.90;;;;;;4966731;28;20429;-64
2022/12/10 09:52:39;;;;;;;29.87;13.53;;;3.90;99.90;;;;;;4963228;28;20504;-64
2022/12/10 09:55:15;;;;;;;44.27;14.87;;;3.90;99.90;;;;;;4961726;28;20470;-64
2022/12/10 09:57:51;;;;;;;51.00;16.03;;;4.00;99.90;;;;;;4969144;28;20443;-64
2022/12/10 10:00:26;;;;;;;20.20;12.13;;;4.00;99.90;;;;;;4968723;28;20464;-64
2022/12/10 10:02:56;;;;;;;51.47;16.33;;;4.10;99.90;;;;;;4970020;28;20472;-64
2022/12/10 10:05:28;;;;;;;20.70;14.43;;;4.10;99.90;;;;;;4966820;28;20738;-64
2022/12/10 10:08:25;;;;;;;17.80;12.10;;;4.10;43.20;;;;;;4971060;28;20971;-64
2022/12/10 10:10:51;;;;;;;20.93;12.90;;;4.00;7.20;;;;;;4941038;28;20430;-64
2022/12/10 10:13:34;;;;;;;22.20;12.50;;;4.20;8.20;;;;;;4970894;28;20440;-64
2022/12/10 10:16:13;;;;;;;19.30;12.70;;;4.30;1.00;;;;;;4972964;28;20192;-65
2022/12/10 10:18:43;;;;;;;18.03;12.90;;;4.10;1.00;;;;;;4972025;28;20550;-65
2022/12/10 10:21:21;;;;;;;31.90;14.10;;;3.80;1.00;;;;;;4971359;28;20821;-65
2022/12/10 10:23:47;;;;;;;41.03;13.00;;;3.90;1.00;;;;;;4971519;28;20496;-63
2022/12/10 10:26:13;;;;;;;16.43;11.87;;;4.00;1.00;;;;;;4971238;28;20440;-63
2022/12/10 10:28:40;;;;;;;18.53;13.67;;;3.70;1.00;;;;;;4968206;28;20918;-64
2022/12/10 10:31:27;;;;;;;20.60;12.83;;;3.80;1.00;;;;;;4965996;28;20260;-64
2022/12/10 10:33:59;;;;;;;17.90;12.13;;;4.00;1.00;;;;;;4971319;28;20445;-64
2022/12/10 10:36:34;;;;;;;15.53;10.47;;;4.10;1.00;;;;;;4971414;28;20410;-64
2022/12/10 10:39:18;;;;;;;19.30;11.50;;;4.10;1.00;;;;;;4971827;28;20416;-64
2022/12/10 10:41:48;;;;;;;17.60;11.77;;;4.10;1.00;;;;;;4970304;28;20401;-64
2022/12/10 10:44:20;;;;;;;23.23;13.17;;;4.20;1.00;;;;;;4971463;28;20444;-64
2022/12/10 10:46:48;;;;;;;21.40;11.30;;;4.20;1.00;;;;;;4971743;28;20883;-64
2022/12/10 10:49:14;;;;;;;40.47;14.00;;;4.20;1.00;;;;;;4970683;28;20437;-64
2022/12/10 10:51:45;;;;;;;13.73;10.70;;;4.00;1.00;;;;;;4969758;28;20729;-64
2022/12/10 10:54:11;;;;;;;20.53;12.80;;;3.90;1.00;;;;;;4968351;28;20597;-64
2022/12/10 10:56:43;;;;;;;13.57;10.50;;;4.00;1.00;;;;;;4969392;28;20499;-64
2022/12/10 10:59:16;;;;;;;16.97;11.80;;;3.60;1.00;;;;;;4971407;28;20453;-64
2022/12/10 11:01:53;;;;;;;17.53;11.40;;;3.50;1.00;;;;;;4970157;28;20508;-64
2022/12/10 11:04:31;;;;;;;19.00;11.47;;;3.20;1.00;;;;;;4968176;28;20436;-63
2022/12/10 11:07:02;;;;;;;42.97;14.10;;;3.40;1.00;;;;;;4969283;28;20425;-64
2022/12/10 11:09:32;;;;;;;16.80;10.60;;;3.50;1.00;;;;;;4965192;28;20452;-64
2022/12/10 11:12:19;;;;;;;15.13;10.50;;;3.10;1.00;;;;;;4964052;28;20436;-64
2022/12/10 11:14:45;;;;;;;15.33;9.60;;;2.80;1.00;;;;;;4962362;28;20657;-64
2022/12/10 11:17:12;;;;;;;19.53;10.90;;;2.90;1.00;;;;;;4967388;28;20436;-64
2022/12/10 11:19:58;;;;;;;12.57;9.50;;;3.30;1.00;;;;;;4965370;28;20559;-64
2022/12/10 11:22:27;;;;;;;18.67;11.47;;;3.70;1.00;;;;;;4963483;28;20464;-65
2022/12/10 11:24:53;;;;;;;13.70;10.50;;;3.80;1.00;;;;;;4964775;28;20457;-65
2022/12/10 11:27:57;;;;;;;16.03;10.33;;;3.90;1.00;;;;;;4966695;28;20467;-65
2022/12/10 11:30:25;;;;;;;13.57;9.70;;;4.00;1.00;;;;;;4943982;28;20464;-64
2022/12/10 11:33:09;;;;;;;15.60;10.73;;;4.10;1.00;;;;;;4968247;28;20457;-64
2022/12/10 11:35:40;;;;;;;21.87;10.80;;;4.10;1.00;;;;;;4968648;28;20429;-64
2022/12/10 11:38:29;;;;;;;14.73;9.67;;;4.20;1.00;;;;;;4964308;28;20447;-64
2022/12/10 11:41:14;;;;;;;14.47;9.60;;;3.70;1.00;;;;;;4964887;28;20552;-64
2022/12/10 11:43:53;;;;;;;12.77;8.70;;;3.80;1.00;;;;;;4967917;28;20995;-64
2022/12/10 11:46:25;;;;;;;16.13;9.40;;;3.40;1.00;;;;;;4966671;28;20460;-63
2022/12/10 11:49:28;;;;;;;14.67;9.17;;;3.70;1.00;;;;;;4967494;28;20460;-63
2022/12/10 11:52:16;;;;;;;20.80;10.10;;;3.90;1.00;;;;;;4965009;28;20435;-64
2022/12/10 11:55:10;;;;;;;10.90;8.50;;;4.00;1.00;;;;;;4965041;28;20440;-64
2022/12/10 11:57:39;;;;;;;13.83;9.20;;;4.00;1.00;;;;;;4962789;28;20992;-64
2022/12/10 12:00:23;;;;;;;66.43;17.20;;;4.00;1.00;;;;;;4965109;28;20519;-64
2022/12/10 12:03:10;;;;;;;15.10;10.63;;;4.00;1.00;;;;;;4962484;28;20980;-64
2022/12/10 12:05:44;;;;;;;15.53;10.07;;;4.00;1.00;;;;;;4961844;28;20774;-64
2022/12/10 12:08:29;;;;;;;30.80;11.50;;;4.00;1.00;;;;;;4964093;28;20442;-65
2022/12/10 12:11:03;;;;;;;19.10;11.50;;;4.10;1.00;;;;;;4963315;28;20452;-65
2022/12/10 12:13:46;;;;;;;16.60;11.33;;;4.00;1.00;;;;;;4962861;28;21019;-65
2022/12/10 12:16:14;;;;;;;32.07;14.57;;;4.00;1.00;;;;;;4966632;28;22288;-65
2022/12/10 12:18:57;;;;;;;32.30;14.80;;;4.00;1.00;;;;;;4959176;28;20426;-65
2022/12/10 12:21:23;;;;;;;29.60;13.00;;;4.00;1.00;;;;;;4966212;28;20441;-64
2022/12/10 12:24:00;;;;;;;167.17;29.40;;;4.10;1.00;;;;;;4965383;28;20445;-64
2022/12/10 12:26:38;;;;;;;63.40;16.47;;;4.10;1.00;;;;;;4963993;28;20185;-65
2022/12/10 12:29:16;;;;;;;19.27;10.87;;;4.00;15.40;;;;;;4965300;28;20436;-64
2022/12/10 12:31:47;;;;;;;20.67;13.00;;;4.10;1.00;;;;;;4966265;28;20424;-65
2022/12/10 12:34:25;;;;;;;19.87;13.33;;;3.90;1.00;;;;;;4958575;28;20809;-64
2022/12/10 12:36:51;;;;;;;18.03;13.83;;;3.80;1.00;;;;;;4962220;28;20429;-64
2022/12/10 12:39:34;;;;;;;17.73;13.47;;;3.40;87.20;;;;;;4963267;28;20511;-64
2022/12/10 12:42:06;;;;;;;19.80;14.43;;;3.30;99.90;;;;;;4960321;28;20508;-64
2022/12/10 12:44:40;;;;;;;39.10;14.80;;;3.40;99.90;;;;;;4967334;28;20439;-64
2022/12/10 12:47:31;;;;;;;72.20;20.07;;;3.50;1.00;;;;;;4965288;28;20422;-63
2022/12/10 12:49:59;;;;;;;53.13;19.27;;;3.70;1.00;;;;;;4962679;28;20434;-64
2022/12/10 12:52:58;;;;;;;37.37;15.70;;;3.90;99.90;;;;;;4968129;28;20456;-64
2022/12/10 12:55:37;;;;;;;53.60;19.13;;;3.70;99.90;;;;;;4937909;28;20433;-64
2022/12/10 12:58:29;;;;;;;34.77;17.27;;;3.80;99.90;;;;;;4973184;28;20425;-64
2022/12/10 13:01:06;;;;;;;19.63;13.80;;;3.90;99.90;;;;;;4953203;28;20512;-64
2022/12/10 13:03:39;;;;;;;22.87;15.07;;;3.90;99.90;;;;;;4967903;28;20522;-64
2022/12/10 13:06:22;;;;;;;25.67;15.70;;;4.00;99.90;;;;;;4968877;28;20468;-66
2022/12/10 13:09:17;;;;;;;21.77;15.10;;;4.00;99.90;;;;;;4971743;28;20448;-65